Terminal Aerodrome Forecast
Issued by NWS

Home | Current Version | Previous Version | Text Only | Print | Product List | Glossary On
Versions: 1 2 3 4 5 6 7 8 9 10 11 12 13 14 15 16 17 18
633
FTUS46 KSTO 291129
TAFRDD
TAF
KRDD 291129Z 2912/3012 34007KT P6SM SCT150
     FM292200 VRB04KT P6SM OVC100
     FM300400 22005KT P6SM VCSH OVC050=

USA.gov is the U.S. government's official web portal to all federal, state and local government web resources and services.